Weather reports worldwide

Advertisment
Catanzaro, Italy (16365): temperature & dewpoint: 11.07.2019 07:00:00 - 17.07.2019 07:00:00 (CEST)Catanzaro, Italy (16365): wind speed: 11.07.2019 07:00:00 - 17.07.2019 07:00:00 (CEST)Catanzaro, Italy (16365): wind direction: 11.07.2019 07:00:00 - 17.07.2019 07:00:00 (CEST)Catanzaro, Italy (16365): reduced air pressure: 11.07.2019 07:00:00 - 17.07.2019 07:00:00 (CEST)
Date & Time tt [°C] td [°C] ff [km/h] ff [kn] dd ppp [hPa]
17.07.2019 07:00:00 - - - - - -
17.07.2019 06:00:00 19,1 6,8 15 8 NW 1010,5
17.07.2019 05:00:00 19,1 7,5 15 8 WNW 1010,4
17.07.2019 04:00:00 19,4 7,7 21 11 NNW 1010,2
17.07.2019 03:00:00 18,8 9,0 9 5 NW 1010,5
17.07.2019 02:00:00 19,1 9,2 21 11 NW 1010,5
17.07.2019 01:00:00 19,1 9,5 22 12 NW 1010,3
17.07.2019 00:00:00 19,0 9,4 15 8 WNW 1010,2
16.07.2019 23:00:00 19,6 9,1 24 13 NW 1009,6
16.07.2019 22:00:00 19,6 9,1 18 10 NW 1009,2
16.07.2019 21:00:00 20,1 9,6 16 9 NNW 1008,6
16.07.2019 20:00:00 19,2 13,1 9 5 WNW 1008,2
16.07.2019 19:00:00 18,6 13,4 9 5 W 1007,7
16.07.2019 18:00:00 18,9 14,5 9 5 WSW 1007,7
16.07.2019 17:00:00 17,7 13,3 13 7 WNW 1007,4
16.07.2019 16:00:00 16,6 14,0 8 4 N 1007,4
16.07.2019 15:00:00 21,0 13,8 9 5 S 1005,9
16.07.2019 14:00:00 21,5 14,3 8 4 WSW 1005,6
16.07.2019 13:00:00 19,9 14,4 11 6 W 1006,3
16.07.2019 12:00:00 18,3 14,5 9 5 W 1006,6
16.07.2019 11:00:00 18,3 14,9 8 4 W 1006,5
16.07.2019 10:00:00 17,5 14,1 8 4 SE 1006,0
16.07.2019 09:00:00 17,2 14,8 9 5 S 1006,8
16.07.2019 08:00:00 17,1 15,2 13 7 SE 1006,8
16.07.2019 07:00:00 18,0 14,2 2 1 NW 1005,8
16.07.2019 06:00:00 18,2 16,6 9 5 N 1005,9
16.07.2019 05:00:00 18,0 16,3 5 3 NE 1005,5
16.07.2019 04:00:00 18,3 16,6 4 2 NNE 1005,7
16.07.2019 03:00:00 18,6 16,3 2 1 N 1006,6
16.07.2019 02:00:00 18,7 16,1 4 2 ENE 1007,2
16.07.2019 01:00:00 19,0 16,4 2 1 N 1008,3
16.07.2019 00:00:00 19,1 16,3 0 0 N 1008,6
15.07.2019 23:00:00 19,1 16,1 0 0 N 1008,4
15.07.2019 22:00:00 19,0 16,2 0 0 N 1009,0
15.07.2019 21:00:00 18,8 16,2 2 1 NE 1008,4
15.07.2019 20:00:00 18,9 16,3 0 0 N 1008,5
15.07.2019 19:00:00 19,3 16,3 2 1 NE 1008,3
15.07.2019 18:00:00 19,5 15,9 4 2 ENE 1008,1
15.07.2019 17:00:00 19,9 15,9 4 2 E 1008,2
15.07.2019 16:00:00 20,2 14,7 9 5 ESE 1008,3
15.07.2019 15:00:00 21,1 13,9 8 4 ESE 1008,0
15.07.2019 14:00:00 21,4 13,5 5 3 ESE 1008,3
15.07.2019 13:00:00 20,7 12,6 8 4 ENE 1008,6
15.07.2019 12:00:00 19,4 13,3 8 4 ENE 1009,1
15.07.2019 11:00:00 17,6 12,2 9 5 NE 1009,5
15.07.2019 10:00:00 17,5 13,1 9 5 NE 1009,4
15.07.2019 09:00:00 17,3 11,1 9 5 NE 1009,3
15.07.2019 08:00:00 19,7 10,4 8 4 NE 1008,6
15.07.2019 07:00:00 19,2 10,4 4 2 ENE 1008,1
15.07.2019 06:00:00 18,9 10,4 11 6 NE 1008,4
15.07.2019 05:00:00 19,0 12,5 8 4 NNE 1010,1
15.07.2019 04:00:00 19,7 11,7 11 6 SE 1008,4
15.07.2019 03:00:00 19,8 11,8 5 3 NNE 1008,7
15.07.2019 02:00:00 20,0 12,2 0 0 N 1009,7
15.07.2019 01:00:00 20,3 13,2 5 3 NE 1010,5
15.07.2019 00:00:00 21,0 13,1 9 5 SW 1011,6
14.07.2019 23:00:00 21,1 13,4 9 5 WSW 1011,2
14.07.2019 22:00:00 21,3 13,4 5 3 SSW 1010,6
14.07.2019 21:00:00 21,8 13,1 4 2 S 1010,0
14.07.2019 20:00:00 22,3 13,5 11 6 SSE 1009,6
14.07.2019 19:00:00 23,0 12,6 9 5 S 1009,6
14.07.2019 18:00:00 23,6 12,2 21 11 SSE 1009,7
14.07.2019 17:00:00 23,6 12,5 16 9 S 1009,8
14.07.2019 16:00:00 23,9 11,9 13 7 S 1009,7
14.07.2019 15:00:00 24,6 12,5 16 9 S 1009,6
14.07.2019 14:00:00 24,5 12,4 9 5 S 1009,4
14.07.2019 13:00:00 23,8 11,8 8 4 S 1009,7
14.07.2019 12:00:00 24,9 13,7 15 8 S 1009,1
14.07.2019 11:00:00 23,7 14,6 4 2 WSW 1009,0
14.07.2019 10:00:00 23,0 15,0 13 7 SSW 1009,3
14.07.2019 09:00:00 22,1 14,6 9 5 S 1009,1
14.07.2019 08:00:00 21,8 14,6 4 2 SSE 1008,5
14.07.2019 07:00:00 20,7 14,5 5 3 E 1008,3
14.07.2019 06:00:00 20,6 13,0 2 1 NNE 1008,1
14.07.2019 05:00:00 20,9 13,0 2 1 SSW 1008,2
14.07.2019 04:00:00 21,6 12,4 4 2 NW 1008,2
14.07.2019 03:00:00 21,5 13,1 9 5 WNW 1008,4
14.07.2019 02:00:00 21,7 13,8 8 4 W 1008,8
14.07.2019 01:00:00 22,2 14,7 4 2 WNW 1009,1
14.07.2019 00:00:00 21,9 16,8 2 1 W 1009,1
13.07.2019 23:00:00 22,2 16,8 5 3 WNW 1008,7
13.07.2019 22:00:00 22,5 16,7 13 7 WNW 1008,7
13.07.2019 21:00:00 22,8 16,0 18 10 WNW 1008,3
13.07.2019 20:00:00 24,0 14,6 22 12 W 1008,5
13.07.2019 19:00:00 25,5 13,0 18 10 WNW 1007,8
13.07.2019 18:00:00 26,4 12,8 24 13 W 1007,4
13.07.2019 17:00:00 26,9 13,6 26 14 W 1007,9
13.07.2019 16:00:00 27,3 14,3 16 9 W 1008,4
13.07.2019 15:00:00 27,0 15,6 22 12 W 1009,1
13.07.2019 14:00:00 26,2 16,4 21 11 W 1010,0
13.07.2019 13:00:00 26,5 14,9 13 7 W 1010,1
13.07.2019 12:00:00 25,9 15,2 24 13 E 1010,5
13.07.2019 11:00:00 25,0 16,6 13 7 W 1010,7
13.07.2019 10:00:00 23,7 17,4 11 6 W 1010,9
13.07.2019 09:00:00 22,5 17,3 5 3 W 1011,7
13.07.2019 08:00:00 21,8 16,5 0 0 N 1011,8
13.07.2019 07:00:00 21,4 15,6 0 0 N 1011,6
13.07.2019 06:00:00 20,9 15,1 5 3 NW 1011,8
13.07.2019 05:00:00 21,0 12,4 5 3 WNW 1011,7
13.07.2019 04:00:00 21,1 11,9 15 8 NW 1011,7
13.07.2019 03:00:00 20,7 14,0 9 5 NW 1011,8
13.07.2019 02:00:00 21,0 12,6 9 5 WNW 1012,4
13.07.2019 01:00:00 21,4 12,8 4 2 WNW 1012,9
13.07.2019 00:00:00 21,3 15,5 16 9 WNW 1013,0
12.07.2019 23:00:00 21,4 15,8 22 12 WNW 1013,0
12.07.2019 22:00:00 21,7 16,1 15 8 WNW 1012,9
12.07.2019 21:00:00 22,5 14,5 18 10 NW 1012,4
12.07.2019 20:00:00 22,9 14,9 15 8 WNW 1012,0
12.07.2019 19:00:00 24,2 14,2 28 15 W 1011,7
12.07.2019 18:00:00 25,7 10,7 8 4 W 1011,5
12.07.2019 17:00:00 26,5 9,3 11 6 W 1011,7
12.07.2019 16:00:00 26,2 11,5 24 13 W 1012,2
12.07.2019 15:00:00 26,7 10,0 13 7 W 1012,4
12.07.2019 14:00:00 26,7 11,6 15 8 NNW 1012,6
12.07.2019 13:00:00 25,4 13,2 16 9 WNW 1013,0
12.07.2019 12:00:00 24,7 14,7 18 10 W 1013,1
12.07.2019 11:00:00 23,9 14,5 21 11 W 1013,5
12.07.2019 10:00:00 22,9 13,8 16 9 W 1013,4
12.07.2019 09:00:00 21,6 13,9 9 5 WNW 1013,6
12.07.2019 08:00:00 20,8 13,7 16 9 WNW 1013,5
12.07.2019 07:00:00 20,0 13,1 13 7 NW 1013,6
12.07.2019 06:00:00 19,7 12,4 15 8 NW 1013,3
12.07.2019 05:00:00 19,8 12,5 16 9 NW 1012,7
12.07.2019 04:00:00 19,9 11,9 8 4 NW 1012,7
12.07.2019 03:00:00 20,0 10,6 15 8 NW 1012,9
12.07.2019 02:00:00 20,4 11,0 13 7 NW 1013,1
12.07.2019 01:00:00 20,5 10,5 8 4 WNW 1013,3
12.07.2019 00:00:00 21,0 10,1 8 4 WNW 1013,4
11.07.2019 23:00:00 21,4 11,1 5 3 WNW 1013,5
11.07.2019 22:00:00 21,5 12,0 15 8 WNW 1013,5
11.07.2019 21:00:00 22,0 12,2 15 8 WNW 1012,7
11.07.2019 20:00:00 22,9 11,9 8 4 W 1012,4
11.07.2019 19:00:00 24,2 10,8 13 7 W 1011,9
11.07.2019 18:00:00 24,9 11,4 13 7 W 1011,2
11.07.2019 17:00:00 25,7 11,4 11 6 W 1011,1
11.07.2019 16:00:00 26,0 12,1 4 2 WSW 1010,9
11.07.2019 15:00:00 26,4 12,8 5 3 SSE 1011,1
11.07.2019 14:00:00 26,8 13,1 18 10 WSW 1010,8
11.07.2019 13:00:00 26,3 13,4 18 10 WSW 1010,9
11.07.2019 12:00:00 24,9 14,3 15 8 SW 1011,0
11.07.2019 11:00:00 24,9 14,6 16 9 SSW 1010,8
11.07.2019 10:00:00 23,6 14,8 11 6 WSW 1010,7
11.07.2019 09:00:00 23,2 15,4 8 4 W 1010,8
11.07.2019 08:00:00 22,6 15,1 2 1 SE 1010,6
11.07.2019 07:00:00 21,5 14,6 0 0 N 1010,2

tt = temperature
td = dewpoint
ff = wind speed
dd = wind direction
ppp = reduced air pressure

Next stations